Time;durP1;ratioP1;P1;durP2;ratioP2;P2;SDS_P1;SDS_P2;PMS_P1;PMS_P2;Temp;Humidity;BMP_temperature;BMP_pressure;BME280_temperature;BME280_humidity;BME280_pressure;Samples;Min_cycle;Max_cycle;Signal;HPM_P1;HPM_P2
2022/10/03 00:01:44;;;;;;;8.47;7.60;;;6.90;99.90;;;;;;5011954;28;20180;-73
2022/10/03 00:04:16;;;;;;;16.27;8.57;;;6.80;99.90;;;;;;4996061;28;20199;-73
2022/10/03 00:06:41;;;;;;;12.50;8.30;;;6.80;99.90;;;;;;4996395;28;20242;-73
2022/10/03 00:09:38;;;;;;;10.27;7.90;;;6.80;99.90;;;;;;4995895;28;20231;-73
2022/10/03 00:12:46;;;;;;;13.93;9.93;;;6.80;99.90;;;;;;4996646;28;20222;-73
2022/10/03 00:15:20;;;;;;;35.10;23.33;;;6.80;99.90;;;;;;4995720;28;20258;-73
2022/10/03 00:21:15;;;;;;;15.85;10.75;;;6.80;99.90;;;;;;5017290;28;20187;-75
2022/10/03 00:24:00;;;;;;;12.40;9.80;;;6.80;99.90;;;;;;5000588;28;20265;-75
2022/10/03 00:26:48;;;;;;;17.13;12.30;;;6.70;99.90;;;;;;4999376;28;20599;-74
2022/10/03 00:29:34;;;;;;;18.02;10.50;;;6.70;99.90;;;;;;4999878;28;20222;-74
2022/10/03 00:32:25;;;;;;;9.43;7.25;;;6.70;99.90;;;;;;4999559;28;20168;-74
2022/10/03 00:35:00;;;;;;;10.63;8.87;;;6.70;99.90;;;;;;4999286;28;20261;-74
2022/10/03 00:37:28;;;;;;;11.73;9.40;;;6.70;99.90;;;;;;4999641;28;20614;-75
2022/10/03 00:40:27;;;;;;;12.17;7.80;;;6.70;99.90;;;;;;4999544;28;20171;-75
2022/10/03 00:43:11;;;;;;;10.65;7.65;;;6.80;99.90;;;;;;4999290;28;20172;-74
2022/10/03 00:46:03;;;;;;;11.80;8.20;;;6.80;99.90;;;;;;4999637;28;20333;-74
2022/10/03 00:48:51;;;;;;;11.27;7.22;;;6.70;99.90;;;;;;4999136;28;20180;-74
2022/10/03 00:51:33;;;;;;;8.03;5.70;;;6.60;99.90;;;;;;5000152;28;20176;-74
2022/10/03 00:54:42;;;;;;;7.60;6.37;;;6.60;99.90;;;;;;4999893;28;20176;-74
2022/10/03 00:57:15;;;;;;;10.83;7.53;;;6.60;99.90;;;;;;5009795;28;20194;-74
2022/10/03 01:00:12;;;;;;;9.20;8.27;;;6.50;99.90;;;;;;5016872;28;20168;-74
2022/10/03 01:02:52;;;;;;;9.77;7.10;;;6.60;99.90;;;;;;5017371;28;20172;-74
2022/10/03 01:05:27;;;;;;;9.90;7.10;;;6.50;99.90;;;;;;5016314;28;20245;-74
2022/10/03 01:08:40;;;;;;;10.80;8.03;;;6.50;99.90;;;;;;4999099;28;20182;-74
2022/10/03 01:11:10;;;;;;;8.40;6.73;;;6.50;99.90;;;;;;4978294;28;20650;-74
2022/10/03 01:13:54;;;;;;;7.90;6.40;;;6.40;99.90;;;;;;4994573;28;20271;-74
2022/10/03 01:16:42;;;;;;;7.80;6.37;;;6.50;99.90;;;;;;5007987;28;20218;-74
2022/10/03 01:19:31;;;;;;;13.57;9.13;;;6.50;99.90;;;;;;4999338;28;20266;-74
2022/10/03 01:22:30;;;;;;;19.13;11.83;;;6.40;99.90;;;;;;5016344;28;20152;-74
2022/10/03 01:25:25;;;;;;;17.50;9.73;;;6.50;99.90;;;;;;4998583;28;20211;-73
2022/10/03 01:31:07;;;;;;;16.13;9.07;;;6.50;99.90;;;;;;5016533;28;20218;-73
2022/10/03 01:33:49;;;;;;;9.20;7.83;;;6.40;99.90;;;;;;4998142;28;20200;-73
2022/10/03 01:36:38;;;;;;;14.07;8.43;;;6.40;99.90;;;;;;4998210;28;20214;-73
2022/10/03 01:39:18;;;;;;;11.60;8.30;;;6.40;99.90;;;;;;5015932;28;20183;-73
2022/10/03 01:41:57;;;;;;;11.13;8.20;;;6.40;99.90;;;;;;4998802;28;20218;-73
2022/10/03 01:44:29;;;;;;;10.30;8.50;;;6.30;99.90;;;;;;4998133;28;20649;-73
2022/10/03 01:47:21;;;;;;;10.73;8.13;;;6.40;99.90;;;;;;5015783;28;20170;-73
2022/10/03 01:50:18;;;;;;;12.07;8.33;;;6.30;99.90;;;;;;4998066;28;20163;-73
2022/10/03 01:53:05;;;;;;;13.70;7.30;;;6.30;99.90;;;;;;4999023;28;20599;-73
2022/10/03 01:56:03;;;;;;;11.93;7.67;;;6.30;99.90;;;;;;4997739;28;20291;-73
2022/10/03 01:58:55;;;;;;;15.33;7.40;;;6.30;99.90;;;;;;4997805;28;20174;-73
2022/10/03 02:01:43;;;;;;;11.03;6.40;;;6.30;99.90;;;;;;4998804;28;20313;-73
2022/10/03 02:04:20;;;;;;;7.90;6.60;;;6.30;99.90;;;;;;4998481;28;20179;-73
2022/10/03 02:07:04;;;;;;;8.80;6.63;;;6.30;99.90;;;;;;4998407;28;20207;-73
2022/10/03 02:09:48;;;;;;;10.37;7.10;;;6.30;99.90;;;;;;4997557;28;20172;-73
2022/10/03 02:12:34;;;;;;;11.70;6.13;;;6.30;99.90;;;;;;4997707;28;20199;-73
2022/10/03 02:15:23;;;;;;;40.40;6.73;;;6.40;99.90;;;;;;4997400;28;20195;-73
2022/10/03 02:17:54;;;;;;;9.70;6.43;;;6.50;99.90;;;;;;4998219;28;20171;-73
2022/10/03 02:20:33;;;;;;;8.67;6.80;;;6.50;99.90;;;;;;5014837;28;20175;-73
2022/10/03 02:22:59;;;;;;;9.77;6.50;;;6.50;99.90;;;;;;4997313;28;20714;-73
2022/10/03 02:25:49;;;;;;;10.33;8.10;;;6.40;99.90;;;;;;4996985;28;20212;-73
2022/10/03 02:28:54;;;;;;;9.23;8.10;;;6.40;99.90;;;;;;4997224;28;20258;-73
2022/10/03 02:31:57;;;;;;;11.40;7.90;;;6.40;99.90;;;;;;4997102;28;20175;-73
2022/10/03 02:34:28;;;;;;;8.10;7.30;;;6.60;99.90;;;;;;4997147;28;20199;-74
2022/10/03 02:37:40;;;;;;;11.67;8.10;;;6.60;99.90;;;;;;4997907;28;20176;-73
2022/10/03 02:40:42;;;;;;;6.87;6.17;;;6.60;99.90;;;;;;4997452;28;20199;-73
2022/10/03 02:43:10;;;;;;;9.13;6.10;;;6.60;99.90;;;;;;4996906;28;20222;-73
2022/10/03 02:45:54;;;;;;;11.80;7.50;;;6.70;99.90;;;;;;4997354;28;20242;-73
2022/10/03 02:48:57;;;;;;;10.40;7.07;;;6.90;99.90;;;;;;4996845;28;20250;-73
2022/10/03 02:51:50;;;;;;;11.73;7.37;;;7.00;99.90;;;;;;4997537;28;20533;-73
2022/10/03 02:54:50;;;;;;;9.90;7.33;;;7.00;99.90;;;;;;4996741;28;20654;-73
2022/10/03 02:57:59;;;;;;;8.53;6.63;;;7.00;99.90;;;;;;4996733;28;20195;-73
2022/10/03 03:00:34;;;;;;;9.25;6.68;;;7.10;99.90;;;;;;4997476;28;20182;-73
2022/10/03 03:03:34;;;;;;;9.65;6.40;;;7.20;99.90;;;;;;4996554;28;20558;-73
2022/10/03 03:06:22;;;;;;;12.50;6.07;;;7.30;99.90;;;;;;4996260;28;20211;-74
2022/10/03 03:08:53;;;;;;;11.82;6.70;;;7.40;99.90;;;;;;5014367;28;20175;-73
2022/10/03 03:12:12;;;;;;;11.48;5.60;;;7.40;99.90;;;;;;4996569;28;20291;-73
2022/10/03 03:15:09;;;;;;;8.88;5.40;;;7.30;99.90;;;;;;4975961;28;20180;-73
2022/10/03 03:17:55;;;;;;;7.40;5.38;;;7.30;99.90;;;;;;4997484;28;20167;-73
2022/10/03 03:20:46;;;;;;;10.32;6.50;;;7.40;99.90;;;;;;4997219;28;20182;-73
2022/10/03 03:23:49;;;;;;;11.35;6.60;;;7.50;99.90;;;;;;5013885;28;20164;-73
2022/10/03 03:26:43;;;;;;;11.65;7.35;;;7.50;99.90;;;;;;5014473;28;20230;-73
2022/10/03 03:29:26;;;;;;;9.27;5.72;;;7.50;99.90;;;;;;5014067;28;20199;-73
2022/10/03 03:32:22;;;;;;;9.73;5.80;;;7.50;99.90;;;;;;4996789;28;20211;-73
2022/10/03 03:34:50;;;;;;;12.13;6.40;;;7.70;99.90;;;;;;5013603;28;20724;-73
2022/10/03 03:37:37;;;;;;;8.00;5.95;;;7.70;99.90;;;;;;4996991;28;20183;-73
2022/10/03 03:40:31;;;;;;;14.13;6.00;;;7.80;99.90;;;;;;5014004;28;20170;-73
2022/10/03 03:43:09;;;;;;;12.52;7.65;;;7.80;99.90;;;;;;5014053;28;20164;-73
2022/10/03 03:45:49;;;;;;;11.38;7.25;;;7.90;99.90;;;;;;5013684;28;20202;-73
2022/10/03 03:48:18;;;;;;;10.13;7.03;;;7.90;99.90;;;;;;5013740;28;20172;-73
2022/10/03 03:51:20;;;;;;;17.00;9.38;;;8.00;99.90;;;;;;5014021;28;20305;-73
2022/10/03 03:54:11;;;;;;;14.55;7.63;;;8.10;99.90;;;;;;5000107;28;20649;-73
2022/10/03 03:56:52;;;;;;;16.27;7.95;;;8.10;99.90;;;;;;5017887;28;20238;-73
2022/10/03 03:59:38;;;;;;;13.48;8.18;;;8.10;99.90;;;;;;5017855;28;20266;-73
2022/10/03 04:02:25;;;;;;;18.92;10.13;;;8.20;99.90;;;;;;5017803;28;20175;-73
2022/10/03 04:05:17;;;;;;;15.88;9.43;;;8.20;99.90;;;;;;5017367;28;20203;-73
2022/10/03 04:08:10;;;;;;;11.63;8.25;;;8.20;99.90;;;;;;4999951;28;20172;-73
2022/10/03 04:10:41;;;;;;;11.23;7.13;;;8.30;99.90;;;;;;5000520;28;20237;-73
2022/10/03 04:13:35;;;;;;;12.52;6.50;;;8.20;99.90;;;;;;5000049;28;20623;-73
2022/10/03 04:16:10;;;;;;;12.93;6.20;;;8.20;99.90;;;;;;4999958;28;20227;-74
2022/10/03 04:18:58;;;;;;;13.05;6.13;;;8.30;99.90;;;;;;5000765;28;20182;-73
2022/10/03 04:22:10;;;;;;;10.13;5.68;;;8.30;99.90;;;;;;5017467;28;20164;-73
2022/10/03 04:25:16;;;;;;;18.92;6.10;;;8.40;99.90;;;;;;5000267;28;20194;-73
2022/10/03 04:27:51;;;;;;;8.65;5.55;;;8.30;99.90;;;;;;4999359;28;20185;-73
2022/10/03 04:30:38;;;;;;;8.27;5.20;;;8.40;99.90;;;;;;5000306;28;20175;-73
2022/10/03 04:33:42;;;;;;;7.97;5.32;;;8.30;99.90;;;;;;5016983;28;20176;-73
2022/10/03 04:36:29;;;;;;;9.88;5.18;;;8.10;99.90;;;;;;4999272;28;20199;-73
2022/10/03 04:39:24;;;;;;;8.85;5.50;;;7.90;99.90;;;;;;4999378;28;20234;-73
2022/10/03 04:41:53;;;;;;;13.85;5.55;;;7.70;99.90;;;;;;5016790;28;20218;-73
2022/10/03 04:45:00;;;;;;;5.90;5.30;;;7.60;99.90;;;;;;4999572;28;20660;-73
2022/10/03 04:47:50;;;;;;;8.13;5.72;;;7.50;99.90;;;;;;4998845;28;20183;-73
2022/10/03 04:50:36;;;;;;;6.97;5.65;;;7.40;99.90;;;;;;4999143;28;20184;-73
2022/10/03 04:53:03;;;;;;;13.50;6.53;;;7.30;99.90;;;;;;4999154;28;20649;-73
2022/10/03 04:55:43;;;;;;;10.55;6.50;;;7.30;99.90;;;;;;4998916;28;20199;-73
2022/10/03 04:58:55;;;;;;;12.07;6.22;;;7.30;99.90;;;;;;4999228;28;20607;-73
2022/10/03 05:01:42;;;;;;;11.63;6.25;;;7.30;99.90;;;;;;4998928;28;20183;-73
2022/10/03 05:05:03;;;;;;;10.95;5.75;;;7.20;99.90;;;;;;4998218;28;20179;-73
2022/10/03 05:07:40;;;;;;;13.63;7.38;;;7.20;99.90;;;;;;4978553;28;20575;-73
2022/10/03 05:10:47;;;;;;;15.37;8.50;;;7.10;99.90;;;;;;5014031;28;20187;-73
2022/10/03 05:13:29;;;;;;;14.77;8.73;;;7.00;99.90;;;;;;4999206;28;20183;-73
2022/10/03 05:16:01;;;;;;;15.03;7.07;;;6.90;99.90;;;;;;4998556;28;20195;-73
2022/10/03 05:18:48;;;;;;;12.17;7.10;;;6.90;99.90;;;;;;5016356;28;20218;-73
2022/10/03 05:21:26;;;;;;;13.20;8.37;;;6.80;99.90;;;;;;4998415;28;20291;-73
2022/10/03 05:24:30;;;;;;;19.03;8.57;;;6.80;99.90;;;;;;5016264;28;20228;-73
2022/10/03 05:27:13;;;;;;;12.90;8.07;;;6.80;99.90;;;;;;4999296;28;20183;-73
2022/10/03 05:29:56;;;;;;;15.13;7.67;;;6.80;99.90;;;;;;4998672;28;20390;-73
2022/10/03 05:32:39;;;;;;;18.97;15.03;;;6.70;99.90;;;;;;4998476;28;20176;-73
2022/10/03 05:35:23;;;;;;;15.40;11.33;;;6.70;99.90;;;;;;4998059;28;20716;-73
2022/10/03 05:41:17;;;;;;;14.10;7.10;;;6.90;99.90;;;;;;5015664;28;20158;-73
2022/10/03 05:44:17;;;;;;;10.67;6.17;;;7.00;99.90;;;;;;5015624;28;20164;-73
2022/10/03 05:46:55;;;;;;;14.33;6.83;;;7.10;99.90;;;;;;4996694;28;20250;-73
2022/10/03 05:49:50;;;;;;;9.87;5.93;;;7.10;99.90;;;;;;4998516;28;20223;-73
2022/10/03 05:52:58;;;;;;;15.52;7.20;;;7.10;99.90;;;;;;5015523;28;20164;-73
2022/10/03 05:55:35;;;;;;;9.73;5.93;;;7.10;99.90;;;;;;5015761;28;20296;-74
2022/10/03 05:58:36;;;;;;;12.55;6.25;;;7.10;99.90;;;;;;5015780;28;20540;-73
2022/10/03 06:01:13;;;;;;;13.23;7.90;;;7.10;99.90;;;;;;4998750;28;20585;-73
2022/10/03 06:03:53;;;;;;;12.27;7.73;;;7.10;99.90;;;;;;4997733;28;20190;-73
2022/10/03 06:06:51;;;;;;;12.45;7.93;;;7.10;99.90;;;;;;5015078;28;20257;-73
2022/10/03 06:09:34;;;;;;;18.40;7.50;;;7.10;99.90;;;;;;4998474;28;20218;-73
2022/10/03 06:12:09;;;;;;;22.67;11.38;;;7.20;99.90;;;;;;4997548;28;20176;-73
2022/10/03 06:15:01;;;;;;;21.55;10.05;;;7.50;99.90;;;;;;4997220;28;20182;-73
2022/10/03 06:18:21;;;;;;;19.00;10.02;;;7.60;99.90;;;;;;4998271;28;20669;-73
2022/10/03 06:21:18;;;;;;;25.17;18.17;;;7.70;99.90;;;;;;4997430;28;20180;-73
2022/10/03 06:24:07;;;;;;;15.27;8.60;;;7.90;99.90;;;;;;5015154;28;20194;-73
2022/10/03 06:26:49;;;;;;;15.25;9.95;;;7.90;99.90;;;;;;4997159;28;20211;-73
2022/10/03 06:29:34;;;;;;;17.38;8.63;;;8.00;99.90;;;;;;4997240;28;20179;-73
2022/10/03 06:32:44;;;;;;;13.02;7.13;;;8.30;99.90;;;;;;5015000;28;20159;-74
2022/10/03 06:35:47;;;;;;;19.92;10.45;;;8.30;99.90;;;;;;4969928;28;20227;-74
2022/10/03 06:38:51;;;;;;;19.20;10.48;;;8.40;99.90;;;;;;4997073;28;20187;-74
2022/10/03 06:41:41;;;;;;;20.33;10.73;;;8.50;99.90;;;;;;4997795;28;20549;-73
2022/10/03 06:44:39;;;;;;;15.50;10.50;;;8.70;99.90;;;;;;4996992;28;20213;-76
2022/10/03 06:47:21;;;;;;;13.05;9.40;;;8.90;99.90;;;;;;5014735;28;20594;-75
2022/10/03 06:50:20;;;;;;;17.92;8.63;;;9.10;99.90;;;;;;4996895;28;20188;-73
2022/10/03 06:53:16;;;;;;;11.05;7.70;;;9.10;99.90;;;;;;4993909;28;20189;-74
2022/10/03 06:56:06;;;;;;;13.63;7.85;;;9.20;99.90;;;;;;5015359;28;20214;-73
2022/10/03 06:58:50;;;;;;;15.20;6.80;;;9.30;99.90;;;;;;5014373;28;20238;-73
2022/10/03 07:01:53;;;;;;;14.35;6.32;;;9.40;99.90;;;;;;5014303;28;20191;-76
2022/10/03 07:04:27;;;;;;;10.82;6.50;;;9.50;99.90;;;;;;4996559;28;20194;-74
2022/10/03 07:07:06;;;;;;;10.98;6.43;;;9.60;99.90;;;;;;4997302;28;20215;-73
2022/10/03 07:10:00;;;;;;;9.73;5.22;;;9.70;99.90;;;;;;4996719;28;20211;-73
2022/10/03 07:13:20;;;;;;;11.85;6.65;;;9.70;99.90;;;;;;4996802;28;20285;-73
2022/10/03 07:16:00;;;;;;;14.10;7.85;;;9.70;99.90;;;;;;4996409;28;20287;-73
2022/10/03 07:18:56;;;;;;;16.88;10.65;;;9.80;99.90;;;;;;5014313;28;20172;-73
2022/10/03 07:22:09;;;;;;;19.10;7.22;;;9.90;99.90;;;;;;4997018;28;20270;-73
2022/10/03 07:25:23;;;;;;;35.88;20.88;;;9.80;99.90;;;;;;4997296;28;20179;-73
2022/10/03 07:28:38;;;;;;;24.83;15.25;;;10.10;99.90;;;;;;4996409;28;20182;-74
2022/10/03 07:31:30;;;;;;;18.98;12.32;;;10.30;99.90;;;;;;4975102;28;20183;-73
2022/10/03 07:34:28;;;;;;;21.23;10.60;;;10.40;99.90;;;;;;4996024;28;20196;-73
2022/10/03 07:40:38;;;;;;;12.70;6.65;;;11.10;99.90;;;;;;5013807;28;20171;-73
2022/10/03 07:43:10;;;;;;;12.82;6.65;;;11.50;99.90;;;;;;5014015;28;20168;-73
2022/10/03 07:49:36;;;;;;;12.70;6.22;;;11.70;99.90;;;;;;5013999;28;20163;-73
2022/10/03 07:52:40;;;;;;;10.20;5.32;;;11.90;99.90;;;;;;4996394;28;20634;-74
2022/10/03 07:55:36;;;;;;;11.80;6.43;;;12.00;99.90;;;;;;4997055;28;20286;-73
2022/10/03 07:58:20;;;;;;;11.13;6.47;;;12.10;99.90;;;;;;4997139;28;20172;-73
2022/10/03 08:01:27;;;;;;;20.77;15.30;;;12.20;99.90;;;;;;4996052;28;20176;-73
2022/10/03 08:04:38;;;;;;;35.95;27.75;;;12.40;99.90;;;;;;4995982;28;20270;-73
2022/10/03 08:07:37;;;;;;;63.00;44.33;;;12.60;99.90;;;;;;4995907;28;20266;-73
2022/10/03 08:10:22;;;;;;;29.08;20.27;;;12.60;99.90;;;;;;5013556;28;20164;-73
2022/10/03 08:17:06;;;;;;;16.65;8.40;;;12.70;99.90;;;;;;5013648;28;20207;-74
2022/10/03 08:19:40;;;;;;;15.02;7.38;;;12.80;99.90;;;;;;4975354;28;20184;-74
2022/10/03 08:22:44;;;;;;;15.65;9.15;;;12.90;99.90;;;;;;4991830;28;20164;-73
2022/10/03 08:25:40;;;;;;;13.50;8.10;;;13.00;99.90;;;;;;5008599;28;20218;-73
2022/10/03 08:28:31;;;;;;;13.85;5.78;;;13.20;99.90;;;;;;5013611;28;20610;-73
2022/10/03 08:31:12;;;;;;;11.43;6.30;;;13.40;99.90;;;;;;4996688;28;20167;-73
2022/10/03 08:34:26;;;;;;;19.52;9.65;;;13.50;99.90;;;;;;5013328;28;20195;-74
2022/10/03 08:37:26;;;;;;;11.20;6.30;;;13.60;99.90;;;;;;4996181;28;20249;-75
2022/10/03 08:40:35;;;;;;;16.45;8.48;;;13.80;99.90;;;;;;5016706;28;20164;-75
2022/10/03 08:43:10;;;;;;;13.13;7.68;;;14.10;99.90;;;;;;4981501;28;20188;-75
2022/10/03 08:45:50;;;;;;;15.75;5.82;;;14.30;99.90;;;;;;4999525;28;20655;-75
2022/10/03 08:48:39;;;;;;;9.50;3.85;;;14.30;99.90;;;;;;5016793;28;20148;-75
2022/10/03 08:51:14;;;;;;;11.57;5.55;;;14.50;99.90;;;;;;4999426;28;20175;-75
2022/10/03 08:53:49;;;;;;;7.72;3.70;;;14.50;99.90;;;;;;5016581;28;20217;-75
2022/10/03 09:00:15;;;;;;;22.52;14.85;;;14.30;99.90;;;;;;5016861;28;20641;-74
2022/10/03 09:03:18;;;;;;;25.05;18.52;;;14.30;99.90;;;;;;4999107;28;20258;-75
2022/10/03 09:06:09;;;;;;;12.90;5.80;;;14.30;99.90;;;;;;5000221;28;20697;-72
2022/10/03 09:08:58;;;;;;;8.32;4.97;;;14.20;99.90;;;;;;4999038;28;20206;-73
2022/10/03 09:11:31;;;;;;;9.40;5.07;;;14.20;99.90;;;;;;5016801;28;20175;-73
2022/10/03 09:14:16;;;;;;;13.82;5.43;;;14.30;99.90;;;;;;5016924;28;20176;-73
2022/10/03 09:16:54;;;;;;;12.00;8.02;;;14.20;99.90;;;;;;5016391;28;20773;-74
2022/10/03 09:19:52;;;;;;;10.65;3.95;;;14.40;99.90;;;;;;5016721;28;20172;-73
2022/10/03 09:22:50;;;;;;;12.35;4.18;;;14.50;99.90;;;;;;4999839;28;20171;-73
2022/10/03 09:25:57;;;;;;;10.60;4.43;;;14.60;99.90;;;;;;4998514;28;20210;-73
2022/10/03 09:28:52;;;;;;;10.13;3.47;;;14.70;99.90;;;;;;4997929;28;20257;-73
2022/10/03 09:31:43;;;;;;;6.75;3.67;;;14.80;99.90;;;;;;4999380;28;20174;-74
2022/10/03 09:34:43;;;;;;;8.63;4.20;;;14.90;99.90;;;;;;5015993;28;20190;-74
2022/10/03 09:37:38;;;;;;;11.40;2.95;;;15.00;99.90;;;;;;4998382;28;20692;-74
2022/10/03 09:40:12;;;;;;;7.93;4.82;;;15.10;99.90;;;;;;4999313;28;20168;-73
2022/10/03 09:42:56;;;;;;;10.70;3.00;;;15.10;99.90;;;;;;5016167;28;20163;-73
2022/10/03 09:46:03;;;;;;;9.77;3.65;;;15.30;99.90;;;;;;4998645;28;20239;-74
2022/10/03 09:49:05;;;;;;;9.75;3.42;;;15.40;99.90;;;;;;4998198;28;20178;-74
2022/10/03 09:51:55;;;;;;;10.48;2.72;;;15.50;99.90;;;;;;4998252;28;20181;-73
2022/10/03 09:54:27;;;;;;;5.88;2.10;;;15.60;99.90;;;;;;4997874;28;20159;-73
2022/10/03 09:57:17;;;;;;;5.93;2.00;;;15.70;99.90;;;;;;4998739;28;20168;-74
2022/10/03 10:00:16;;;;;;;6.63;1.75;;;15.70;99.90;;;;;;4998283;28;20180;-74
2022/10/03 10:03:05;;;;;;;7.55;2.20;;;15.80;99.90;;;;;;4998556;28;20246;-73
2022/10/03 10:05:48;;;;;;;7.38;2.65;;;15.90;99.90;;;;;;4997545;28;20298;-73
2022/10/03 10:08:53;;;;;;;9.60;2.70;;;15.90;99.90;;;;;;4997638;28;20175;-73
2022/10/03 10:11:46;;;;;;;5.97;2.50;;;15.60;99.90;;;;;;4998498;28;20241;-73
2022/10/03 10:14:30;;;;;;;7.00;2.20;;;15.40;99.90;;;;;;4997456;28;20183;-73
2022/10/03 10:17:14;;;;;;;8.75;2.22;;;15.10;99.90;;;;;;5015369;28;20206;-73
2022/10/03 10:19:45;;;;;;;4.57;2.03;;;15.00;99.90;;;;;;5014965;28;20175;-73
2022/10/03 10:22:57;;;;;;;3.88;1.80;;;14.90;99.90;;;;;;5015165;28;20203;-73
2022/10/03 10:25:35;;;;;;;7.45;2.05;;;15.00;99.90;;;;;;4997926;28;20203;-74
2022/10/03 10:28:19;;;;;;;5.35;2.00;;;14.90;99.90;;;;;;4998424;28;20168;-74
2022/10/03 10:31:15;;;;;;;5.75;1.90;;;15.00;99.90;;;;;;4998308;28;20259;-74
2022/10/03 10:34:03;;;;;;;5.13;1.77;;;14.90;99.90;;;;;;4997461;28;20184;-74
2022/10/03 10:36:48;;;;;;;5.30;1.60;;;15.00;99.90;;;;;;4997062;28;20686;-74
2022/10/03 10:39:43;;;;;;;8.38;1.75;;;15.20;99.90;;;;;;5014548;28;20168;-74
2022/10/03 10:42:36;;;;;;;5.82;1.63;;;15.40;99.90;;;;;;4988253;28;20240;-74
2022/10/03 10:45:27;;;;;;;9.02;2.17;;;15.60;99.90;;;;;;4997008;28;20207;-74
2022/10/03 10:48:36;;;;;;;6.57;2.08;;;15.50;99.90;;;;;;4996908;28;20211;-73
2022/10/03 10:51:20;;;;;;;6.47;1.90;;;15.60;99.90;;;;;;4997672;28;20270;-74
2022/10/03 10:54:23;;;;;;;7.18;1.90;;;15.40;99.90;;;;;;4996752;28;20175;-74
2022/10/03 10:57:03;;;;;;;3.40;1.80;;;15.00;99.90;;;;;;5014560;28;20650;-74
2022/10/03 10:59:48;;;;;;;4.82;1.88;;;14.80;99.90;;;;;;4996814;28;20205;-73
2022/10/03 11:02:45;;;;;;;6.35;1.85;;;14.70;99.90;;;;;;4997086;28;20179;-74
2022/10/03 11:05:16;;;;;;;6.32;1.60;;;14.40;99.90;;;;;;5014697;28;20657;-73
2022/10/03 11:11:22;;;;;;;5.28;2.63;;;14.30;99.90;;;;;;5014369;28;20162;-73
2022/10/03 11:14:19;;;;;;;7.80;3.65;;;14.30;99.90;;;;;;4996416;28;20183;-73
2022/10/03 11:17:12;;;;;;;7.22;2.58;;;14.50;99.90;;;;;;4996543;28;20565;-73
2022/10/03 11:20:15;;;;;;;7.57;2.50;;;14.70;99.90;;;;;;4996492;28;20206;-73
2022/10/03 11:23:00;;;;;;;7.05;2.05;;;14.90;99.90;;;;;;5013846;28;20214;-73
2022/10/03 11:25:29;;;;;;;4.50;1.75;;;15.00;99.90;;;;;;4996104;28;20207;-73
2022/10/03 11:28:33;;;;;;;3.80;1.90;;;15.00;99.90;;;;;;4996560;28;20631;-73
2022/10/03 11:31:36;;;;;;;6.78;2.30;;;15.10;99.90;;;;;;4996607;28;20175;-74
2022/10/03 11:34:42;;;;;;;5.30;1.92;;;15.30;99.90;;;;;;4997024;28;20179;-74
2022/10/03 11:37:51;;;;;;;4.25;1.80;;;15.50;99.90;;;;;;4997522;28;20218;-74
2022/10/03 11:40:31;;;;;;;5.25;1.85;;;15.70;99.90;;;;;;4992846;28;20184;-74
2022/10/03 11:43:35;;;;;;;8.25;3.22;;;15.90;99.90;;;;;;5013159;28;20190;-75
2022/10/03 11:50:14;;;;;;;5.72;2.38;;;15.90;99.90;;;;;;5012712;28;20275;-73
2022/10/03 11:53:17;;;;;;;6.22;2.38;;;15.80;99.90;;;;;;4995975;28;20290;-76
2022/10/03 11:59:32;;;;;;;4.72;1.70;;;15.80;99.90;;;;;;5013817;28;20155;-75
2022/10/03 12:02:38;;;;;;;5.57;1.90;;;15.80;99.90;;;;;;4996058;28;20192;-76
2022/10/03 12:05:25;;;;;;;3.95;1.90;;;15.90;99.90;;;;;;4996891;28;20269;-76
2022/10/03 12:11:22;;;;;;;7.93;1.80;;;15.90;99.90;;;;;;5013674;28;20163;-76
2022/10/03 12:17:38;;;;;;;3.83;1.48;;;15.80;99.90;;;;;;5017634;28;20254;-75
2022/10/03 12:24:07;;;;;;;4.20;1.48;;;15.70;99.90;;;;;;5017612;28;20540;-75
2022/10/03 12:26:44;;;;;;;2.60;1.38;;;15.80;99.90;;;;;;5016975;28;20238;-75
2022/10/03 12:29:13;;;;;;;7.72;2.30;;;15.90;99.90;;;;;;5017479;28;20178;-75
2022/10/03 12:35:52;;;;;;;3.58;1.70;;;15.90;99.90;;;;;;5017229;28;20190;-75
2022/10/03 12:41:45;;;;;;;4.80;1.50;;;16.10;99.90;;;;;;5017128;28;20258;-76
2022/10/03 12:44:17;;;;;;;4.07;1.50;;;16.40;99.90;;;;;;5017104;28;20246;-76
2022/10/03 12:47:34;;;;;;;4.47;1.65;;;16.40;99.90;;;;;;4999635;28;20302;-76
2022/10/03 12:53:40;;;;;;;5.25;1.60;;;16.30;99.90;;;;;;5016747;28;20166;-75
2022/10/03 12:56:47;;;;;;;5.57;1.60;;;16.20;99.90;;;;;;4998915;28;20293;-75
2022/10/03 13:03:04;;;;;;;5.90;1.70;;;16.30;99.90;;;;;;5016722;28;20167;-75
2022/10/03 13:05:55;;;;;;;6.05;1.48;;;16.30;99.90;;;;;;4999802;28;20254;-75
2022/10/03 13:08:37;;;;;;;6.78;1.50;;;16.40;99.90;;;;;;4998983;28;20210;-76
2022/10/03 13:11:41;;;;;;;2.17;1.52;;;16.40;99.90;;;;;;4999567;28;20306;-76
2022/10/03 13:14:27;;;;;;;2.53;1.33;;;16.30;99.90;;;;;;4998576;28;20205;-76
2022/10/03 13:20:26;;;;;;;5.53;1.60;;;16.40;99.90;;;;;;5016419;28;20210;-76
2022/10/03 13:23:31;;;;;;;3.08;1.50;;;16.30;99.90;;;;;;4998745;28;20179;-75
2022/10/03 13:26:37;;;;;;;7.38;1.70;;;16.30;99.90;;;;;;4991129;28;20218;-75
2022/10/03 13:29:19;;;;;;;4.13;1.40;;;16.20;99.90;;;;;;5016685;28;20578;-75
2022/10/03 13:32:05;;;;;;;4.03;1.50;;;16.10;99.90;;;;;;4999553;28;20168;-75
2022/10/03 13:34:45;;;;;;;4.85;1.70;;;16.00;99.90;;;;;;5016450;28;20167;-75
2022/10/03 13:37:26;;;;;;;4.50;1.40;;;15.80;99.90;;;;;;4998263;28;20253;-76
2022/10/03 13:43:20;;;;;;;5.07;1.50;;;15.60;99.90;;;;;;5016061;28;20174;-76
2022/10/03 13:46:18;;;;;;;4.60;1.70;;;15.60;99.90;;;;;;4998694;28;20218;-75
2022/10/03 13:48:53;;;;;;;5.57;1.73;;;15.50;99.90;;;;;;5015683;28;20160;-75
2022/10/03 13:51:52;;;;;;;6.88;1.55;;;15.60;99.90;;;;;;4998557;28;20186;-75
2022/10/03 13:54:51;;;;;;;5.53;2.03;;;15.50;99.90;;;;;;4990182;28;20301;-75
2022/10/03 13:57:57;;;;;;;3.47;1.52;;;15.50;99.90;;;;;;5015754;28;20254;-74
2022/10/03 14:00:27;;;;;;;4.22;1.77;;;15.70;99.90;;;;;;5016147;28;20509;-74
2022/10/03 14:03:07;;;;;;;4.78;2.08;;;15.60;99.90;;;;;;4998055;28;20654;-74
2022/10/03 14:06:12;;;;;;;5.95;1.83;;;15.60;99.90;;;;;;5015081;28;20302;-74
2022/10/03 14:09:01;;;;;;;3.03;1.42;;;15.60;99.90;;;;;;4998657;28;20175;-73
2022/10/03 14:11:45;;;;;;;3.47;1.60;;;15.40;99.90;;;;;;5015118;28;20164;-73
2022/10/03 14:14:50;;;;;;;4.20;1.75;;;15.30;99.90;;;;;;4998071;28;20255;-73
2022/10/03 14:17:43;;;;;;;3.63;1.48;;;15.30;99.90;;;;;;4997910;28;20282;-73
2022/10/03 14:20:22;;;;;;;6.40;1.60;;;15.30;99.90;;;;;;4998002;28;20271;-73
2022/10/03 14:23:14;;;;;;;4.85;1.60;;;15.40;99.90;;;;;;4998484;28;20518;-73
2022/10/03 14:25:50;;;;;;;3.20;1.80;;;15.40;99.90;;;;;;4998407;28;20242;-73
2022/10/03 14:28:46;;;;;;;4.07;1.58;;;15.40;99.90;;;;;;4997362;28;20248;-73
2022/10/03 14:31:35;;;;;;;3.55;1.52;;;15.30;99.90;;;;;;4991216;28;20234;-73
2022/10/03 14:34:32;;;;;;;4.93;1.70;;;15.20;99.90;;;;;;4996897;28;20175;-73
2022/10/03 14:37:14;;;;;;;3.20;1.60;;;15.20;99.90;;;;;;4996493;28;20345;-73
2022/10/03 14:39:50;;;;;;;2.60;1.38;;;15.30;99.90;;;;;;4997050;28;20557;-73
2022/10/03 14:42:54;;;;;;;3.38;1.48;;;15.30;99.90;;;;;;4997018;28;20260;-74
2022/10/03 14:45:28;;;;;;;5.30;1.50;;;15.30;99.90;;;;;;4997118;28;20211;-73
2022/10/03 14:47:58;;;;;;;5.13;1.60;;;15.30;99.90;;;;;;5014547;28;20159;-73
2022/10/03 14:50:27;;;;;;;3.95;1.80;;;15.20;99.90;;;;;;4996789;28;20203;-73
2022/10/03 14:53:28;;;;;;;7.88;1.88;;;15.10;99.90;;;;;;4996888;28;20234;-73
2022/10/03 14:56:12;;;;;;;4.20;1.40;;;15.00;99.90;;;;;;4997561;28;20207;-73
2022/10/03 14:58:45;;;;;;;4.63;1.67;;;15.00;99.90;;;;;;4986236;28;20203;-73
2022/10/03 15:01:20;;;;;;;5.57;1.50;;;15.00;99.90;;;;;;4978090;28;20228;-73
2022/10/03 15:04:27;;;;;;;6.03;1.80;;;14.90;99.90;;;;;;4978121;28;20206;-73
2022/10/03 15:07:06;;;;;;;5.20;1.55;;;14.80;99.90;;;;;;4977118;28;20204;-73
2022/10/03 15:09:38;;;;;;;3.72;1.60;;;14.80;99.90;;;;;;4995285;28;20168;-73
2022/10/03 15:12:11;;;;;;;4.43;1.50;;;14.80;99.90;;;;;;4977046;28;20180;-73
2022/10/03 15:14:42;;;;;;;6.57;1.70;;;14.80;99.90;;;;;;4977737;28;20168;-73
2022/10/03 15:17:21;;;;;;;6.00;1.70;;;14.70;99.90;;;;;;4977333;28;20628;-73
2022/10/03 15:19:56;;;;;;;4.00;1.30;;;14.60;99.90;;;;;;4994382;28;20621;-73
2022/10/03 15:22:39;;;;;;;3.88;1.52;;;14.60;99.90;;;;;;4977800;28;20191;-73
2022/10/03 15:25:40;;;;;;;8.35;1.95;;;14.50;99.90;;;;;;4994323;28;20192;-73
2022/10/03 15:28:14;;;;;;;4.63;1.45;;;14.50;99.90;;;;;;4977689;28;20171;-73
2022/10/03 15:30:41;;;;;;;3.67;1.75;;;14.40;99.90;;;;;;4994436;28;20512;-73
2022/10/03 15:33:15;;;;;;;3.58;1.70;;;14.40;99.90;;;;;;4976811;28;20176;-73
2022/10/03 15:35:45;;;;;;;6.32;2.30;;;14.40;99.90;;;;;;4977531;28;20257;-73
2022/10/03 15:38:28;;;;;;;5.45;1.70;;;14.30;99.90;;;;;;4977467;28;20169;-73
2022/10/03 15:41:34;;;;;;;3.55;1.67;;;14.30;99.90;;;;;;4994946;28;20222;-73
2022/10/03 15:47:28;;;;;;;4.55;2.00;;;14.20;99.90;;;;;;4994311;28;20200;-73